Daily Stat PackHorse Racing Tips

Todays Racecards Daily Stat Pack

Our Daily Stat Pack provides you with the details of the best jockeys and trainers at all the courses racing today.

We start by looking for jockeys and trainers who have had a minimum of a 17% strike rate over the course they are running at today…

We recommend that when considering the following runners in your analysis you remove any at 16/1 or higher. To get profitable tips each day based on this data please visit the UKRN Early Bird service here.

Musselburgh

DATE / TIME HORSE TRAINER TRAINER WINS TRAINER RUNS TRAINER SR
2017-10-16 13:50:00 Time Trail M Dods 25 141 17.73
2017-10-16 14:50:00 Get Knotted M Dods 25 141 17.73
2017-10-16 14:50:00 Masham Star M Johnston 75 398 18.84
2017-10-16 14:50:00 Big Tour S bin Suroor 3 11 27.27
2017-10-16 15:20:00 Alpha Delphini B Smart 42 229 18.34
2017-10-16 15:50:00 Jacob’s Pillow R Bastiman 9 51 17.65
2017-10-16 16:20:00 Roaring Forties R Bastiman 9 51 17.65
2017-10-16 16:20:00 Seaview D Brown 8 41 19.51
2017-10-16 16:55:00 Donnelly’s Rainbow R Bastiman 9 51 17.65
2017-10-16 16:55:00 Geophony M Johnston 75 398 18.84
2017-10-16 17:25:00 Tawseef D McCain 44 209 21.05
DATE / TIME HORSE JOCKEY JOCKEY WINS JOCKEY RUNS JOCKEY SR
2017-10-16 13:50:00 Royal Pursuit Kevin Stott 9 42 21.43
2017-10-16 13:50:00 Eva Docc J Fanning 93 495 18.79
2017-10-16 14:20:00 Al Hawraa Kevin Stott 9 42 21.43
2017-10-16 14:20:00 Mister Showman J Fanning 93 495 18.79
2017-10-16 14:50:00 Masham Star J Fanning 93 495 18.79
2017-10-16 14:50:00 Lualiwa Kevin Stott 9 42 21.43
2017-10-16 14:50:00 Theodorico B A Curtis 11 55 20
2017-10-16 14:50:00 Lat Hawill C Nichol 30 143 20.98
2017-10-16 15:50:00 Fast Act Kevin Stott 9 42 21.43
2017-10-16 16:20:00 Fine Example Kevin Stott 9 42 21.43
2017-10-16 16:20:00 Mimic’s Memory J Fanning 93 495 18.79
2017-10-16 16:20:00 So It’s War C Nichol 30 143 20.98
2017-10-16 16:55:00 Art Echo B A Curtis 11 55 20
2017-10-16 16:55:00 Inglorious C Nichol 30 143 20.98

Windsor

DATE / TIME HORSE TRAINER TRAINER WINS TRAINER RUNS TRAINER SR
2017-10-16 14:00:00 La Belle Mayson R Fahey 12 51 23.53
2017-10-16 14:30:00 Garrick J Gosden 31 169 18.34
2017-10-16 14:30:00 Jus Pires J Noseda 36 155 23.23
2017-10-16 14:30:00 Andok R Fahey 12 51 23.53
2017-10-16 15:00:00 Haverland C Fellowes 5 25 20
2017-10-16 15:30:00 Clef R Fahey 12 51 23.53
2017-10-16 16:00:00 Zeelander R Varian 38 124 30.65
2017-10-16 16:00:00 Uptown Funk J Gosden 31 169 18.34
2017-10-16 16:00:00 Miss Liguria E Walker 17 79 21.52
2017-10-16 16:30:00 Paddy Power R Fahey 12 51 23.53
2017-10-16 16:30:00 Ballymore Castle R Fahey 12 51 23.53
2017-10-16 16:30:00 Abiento E Walker 17 79 21.52
2017-10-16 17:00:00 Paradise Lake Sir M Stoute 42 217 19.35
2017-10-16 17:30:00 Crimson Rosette C Fellowes 5 25 20
DATE / TIME HORSE JOCKEY JOCKEY WINS JOCKEY RUNS JOCKEY SR
2017-10-16 14:00:00 Adulate A Atzeni 43 192 22.4
2017-10-16 14:30:00 Good Way Off J P Spencer 51 292 17.47
2017-10-16 14:30:00 Fast Dancer Joshua Bryan 3 10 30
2017-10-16 14:30:00 Sparte Quercus A Atzeni 43 192 22.4
2017-10-16 15:30:00 Kitty Boo J P Spencer 51 292 17.47
2017-10-16 16:00:00 Zeelander A Atzeni 43 192 22.4
2017-10-16 16:00:00 Miss Liguria J P Spencer 51 292 17.47
2017-10-16 16:30:00 Bahamian Dollar Miss K Begley 2 10 20
2017-10-16 16:30:00 Buxted Dream J P Spencer 51 292 17.47
2017-10-16 17:00:00 Colourful Career A Atzeni 43 192 22.4
2017-10-16 17:30:00 Sacred Way J P Spencer 51 292 17.47
2017-10-16 17:30:00 Shanghai Shane Joshua Bryan 3 10 30

Yarmouth

DATE / TIME HORSE TRAINER TRAINER WINS TRAINER RUNS TRAINER SR
2017-10-16 13:40:00 Equo C Wall 51 245 20.82
2017-10-16 13:40:00 Fakhoor O Burrows 4 11 36.36
2017-10-16 14:10:00 Alfarqad O Burrows 4 11 36.36
2017-10-16 14:10:00 Go Fox T Clover 2 10 20
2017-10-16 14:10:00 Herdwick Sir M Stoute 33 156 21.15
2017-10-16 14:10:00 Humbolt Current W Haggas 56 238 23.53
2017-10-16 14:10:00 Timoshenko Sir M Prescott 27 123 21.95
2017-10-16 14:10:00 Vantasy C Wall 51 245 20.82
2017-10-16 14:10:00 Willie John W Haggas 56 238 23.53
2017-10-16 14:10:00 Black Lotus C Wall 51 245 20.82
2017-10-16 14:40:00 Ventura Gold R Fahey 16 69 23.19
2017-10-16 14:40:00 Mutafarrid O Burrows 4 11 36.36
2017-10-16 14:40:00 General Marius R Varian 28 108 25.93
2017-10-16 15:10:00 Daphne W Haggas 56 238 23.53
2017-10-16 15:10:00 Dubka Sir M Stoute 33 156 21.15
2017-10-16 15:10:00 Notice D Simcock 36 174 20.69
2017-10-16 15:10:00 Pacharana L Cumani 32 171 18.71
2017-10-16 15:10:00 Aljezeera L Cumani 32 171 18.71
2017-10-16 16:10:00 Broughtons Story H Spiller 2 10 20
2017-10-16 16:40:00 Chiswick Bey R Fahey 16 69 23.19
2017-10-16 16:40:00 Marilyn C Wall 51 245 20.82
2017-10-16 17:10:00 Zaria R Price 3 15 20
2017-10-16 17:40:00 Monaadhil M Tregoning 11 41 26.83
2017-10-16 17:40:00 Vanity Queen L Cumani 32 171 18.71
DATE / TIME HORSE JOCKEY JOCKEY WINS JOCKEY RUNS JOCKEY SR
2017-10-16 13:40:00 Pranceabootthetoon J Osborn 3 13 23.08
2017-10-16 14:10:00 Dark Side Jazz J Osborn 3 13 23.08
2017-10-16 14:10:00 Herdwick R L Moore 71 286 24.83
2017-10-16 14:10:00 Humbolt Current W Buick 33 182 18.13
2017-10-16 14:10:00 Vantasy J Mitchell 22 127 17.32
2017-10-16 14:40:00 General Marius J Mitchell 22 127 17.32
2017-10-16 14:40:00 Catapult Miss H Doyle 2 10 20
2017-10-16 14:40:00 Gembari S De Sousa 44 207 21.26
2017-10-16 15:10:00 Capricious Cantor S De Sousa 44 207 21.26
2017-10-16 15:10:00 Dubka R L Moore 71 286 24.83
2017-10-16 15:10:00 Aljezeera L Dettori 30 126 23.81
2017-10-16 15:10:00 Wingingit W Buick 33 182 18.13
2017-10-16 15:40:00 Bizet J Osborn 3 13 23.08
2017-10-16 16:10:00 Broughtons Story J Osborn 3 13 23.08
2017-10-16 16:10:00 King Kevin S De Sousa 44 207 21.26
2017-10-16 17:40:00 Mitigate Miss H Doyle 2 10 20

To find the strongest runners we are looking for those horses that have both a jockey and trainer with over a 17% strike rate in todays race cards. We then check out their stats to find the horses that you should be looking at closely in todays racing based on this information.

We recommend that when considering the following runners in your analysis you remove any at 16/1 or higher.

To get profitable tips each day based on this data please visit the UKRN Early Bird service here.

Today’s strongest runners are:
  • 14:50 Musselburgh

HORSE: Masham Star

TRAINER: M Johnston

TRAINER STRIKE RATE: 18.84%

JOCKEY: J Fanning

JOCKEY STRIKE RATE: 18.79%

S/R FOR THIS GOING: 0%

S/R FOR THIS DISTANCE: 17%

S/R FOR THIS COURSE: 0%

* The Daily Stat Pack is a free tool based on statistics from todays racecards that is designed to be combined with your other race analysis.

Tags

Related Articles

Leave a Reply

Your email address will not be published. Required fields are marked *

Close
Close